createdAt,value
2023-09-14T00:01:44.796Z,101703.31
2023-09-14T00:04:11.491Z,101703.38
2023-09-14T00:06:38.005Z,101701.03
2023-09-14T00:09:04.554Z,101698.50
2023-09-14T00:11:31.065Z,101702.28
2023-09-14T00:13:57.702Z,101697.63
2023-09-14T00:16:24.221Z,101699.78
2023-09-14T00:18:50.811Z,101699.25
2023-09-14T00:21:17.223Z,101703.00
2023-09-14T00:23:43.647Z,101697.25
2023-09-14T00:26:11.135Z,101701.88
2023-09-14T00:28:39.875Z,101707.25
2023-09-14T00:31:06.425Z,101709.38
2023-09-14T00:33:33.114Z,101711.50
2023-09-14T00:35:59.944Z,101706.56
2023-09-14T00:38:26.427Z,101708.59
2023-09-14T00:40:52.965Z,101717.50
2023-09-14T00:43:20.485Z,101709.44
2023-09-14T00:45:47.307Z,101712.66
2023-09-14T00:48:13.999Z,101710.25
2023-09-14T00:50:41.559Z,101708.56
2023-09-14T00:53:11.256Z,101718.66
2023-09-14T00:55:38.108Z,101713.16
2023-09-14T00:58:04.972Z,101719.81
2023-09-14T01:00:32.548Z,101724.44
2023-09-14T01:03:02.162Z,101718.34
2023-09-14T01:05:31.635Z,101717.03
2023-09-14T01:07:58.999Z,101718.44
2023-09-14T01:10:25.514Z,101718.44
2023-09-14T01:12:52.457Z,101714.66
2023-09-14T01:15:58.430Z,101710.69
2023-09-14T01:18:31.907Z,101712.00
2023-09-14T01:21:35.995Z,101715.47
2023-09-14T01:24:24.186Z,101721.72
2023-09-14T01:26:51.514Z,101730.63
2023-09-14T01:29:18.454Z,101730.06
2023-09-14T01:31:44.945Z,101728.16
2023-09-14T01:34:13.309Z,101734.34
2023-09-14T01:36:47.935Z,101736.41
2023-09-14T01:39:14.641Z,101733.69
2023-09-14T01:41:41.801Z,101737.31
2023-09-14T01:44:08.642Z,101733.78
2023-09-14T01:46:35.933Z,101736.25
2023-09-14T01:49:02.783Z,101734.78
2023-09-14T01:51:30.959Z,101733.59
2023-09-14T01:53:57.578Z,101735.25
2023-09-14T01:56:24.058Z,101737.41
2023-09-14T01:58:51.012Z,101737.72
2023-09-14T02:01:17.485Z,101734.69
2023-09-14T02:03:43.980Z,101731.47
2023-09-14T02:06:10.771Z,101720.84
2023-09-14T02:08:37.471Z,101730.41
2023-09-14T02:11:04.538Z,101721.75
2023-09-14T02:13:31.192Z,101722.56
2023-09-14T02:15:58.110Z,101727.75
2023-09-14T02:18:24.856Z,101731.25
2023-09-14T02:20:51.268Z,101721.44
2023-09-14T02:23:18.907Z,101716.97
2023-09-14T02:25:46.408Z,101724.31
2023-09-14T02:28:14.818Z,101718.63
2023-09-14T02:30:42.420Z,101719.19
2023-09-14T02:33:09.160Z,101723.50
2023-09-14T02:35:37.256Z,101715.50
2023-09-14T02:38:04.006Z,101715.66
2023-09-14T02:40:31.232Z,101725.63
2023-09-14T02:42:57.989Z,101729.25
2023-09-14T02:45:25.049Z,101730.88
2023-09-14T02:47:52.106Z,101735.75
2023-09-14T02:50:18.632Z,101733.75
2023-09-14T02:52:45.097Z,101734.50
2023-09-14T02:55:11.772Z,101734.41
2023-09-14T02:57:38.384Z,101734.06
2023-09-14T03:00:08.889Z,101744.09
2023-09-14T03:02:35.504Z,101734.66
2023-09-14T03:05:02.079Z,101739.59
2023-09-14T03:07:29.468Z,101734.16
2023-09-14T03:09:56.048Z,101739.25
2023-09-14T03:12:22.751Z,101738.44
2023-09-14T03:14:49.395Z,101738.19
2023-09-14T03:17:15.969Z,101737.72
2023-09-14T03:19:43.895Z,101743.88
2023-09-14T03:22:11.457Z,101739.81
2023-09-14T03:24:38.650Z,101743.28
2023-09-14T03:27:05.341Z,101749.00
2023-09-14T03:29:31.960Z,101749.88
2023-09-14T03:31:58.776Z,101752.69
2023-09-14T03:34:25.449Z,101744.13
2023-09-14T03:36:52.167Z,101750.13
2023-09-14T03:39:18.682Z,101747.25
2023-09-14T03:41:45.903Z,101757.44
2023-09-14T03:44:12.387Z,101761.47
2023-09-14T03:46:39.255Z,101760.50
2023-09-14T03:49:08.150Z,101763.13
2023-09-14T03:51:35.218Z,101766.22
2023-09-14T03:54:01.923Z,101757.25
2023-09-14T03:56:28.609Z,101753.22
2023-09-14T03:58:56.316Z,101762.53
2023-09-14T04:01:23.061Z,101757.50
2023-09-14T04:03:50.220Z,101764.22
2023-09-14T04:06:18.180Z,101764.22
2023-09-14T04:08:45.550Z,101761.75
2023-09-14T04:11:12.266Z,101765.56
2023-09-14T04:13:39.964Z,101769.09
2023-09-14T04:16:09.778Z,101761.75
2023-09-14T04:18:40.120Z,101770.28
2023-09-14T04:21:07.511Z,101770.50
2023-09-14T04:23:34.067Z,101778.19
2023-09-14T04:26:02.161Z,101775.47
2023-09-14T04:28:29.740Z,101773.25
2023-09-14T04:30:59.475Z,101775.13
2023-09-14T04:33:27.426Z,101766.31
2023-09-14T04:36:00.628Z,101772.81
2023-09-14T04:38:36.406Z,101772.47
2023-09-14T04:41:05.950Z,101774.16
2023-09-14T04:43:33.827Z,101776.03
2023-09-14T04:46:07.741Z,101776.13
2023-09-14T04:48:39.247Z,101776.75
2023-09-14T04:51:05.960Z,101780.59
2023-09-14T04:53:32.897Z,101784.03
2023-09-14T04:55:59.504Z,101779.31
2023-09-14T04:58:27.077Z,101785.78
2023-09-14T05:00:54.834Z,101782.38
2023-09-14T05:03:22.383Z,101781.13
2023-09-14T05:05:56.118Z,101785.75
2023-09-14T05:08:23.649Z,101791.38
2023-09-14T05:10:53.369Z,101789.28
2023-09-14T05:13:21.858Z,101789.41
2023-09-14T05:15:49.227Z,101792.22
2023-09-14T05:18:18.527Z,101793.03
2023-09-14T05:20:47.648Z,101801.03
2023-09-14T05:23:14.254Z,101804.50
2023-09-14T05:25:41.356Z,101800.88
2023-09-14T05:28:09.477Z,101797.19
2023-09-14T05:30:36.976Z,101806.84
2023-09-14T05:33:03.892Z,101817.59
2023-09-14T05:35:30.552Z,101812.19
2023-09-14T05:37:57.104Z,101816.66
2023-09-14T05:40:23.781Z,101818.84
2023-09-14T05:42:50.300Z,101817.13
2023-09-14T05:45:17.680Z,101811.09
2023-09-14T05:47:45.537Z,101809.84
2023-09-14T05:50:12.180Z,101814.47
2023-09-14T05:52:39.724Z,101818.69
2023-09-14T05:55:07.661Z,101822.41
2023-09-14T05:57:35.243Z,101832.69
2023-09-14T06:00:09.422Z,101823.56
2023-09-14T06:02:41.809Z,101825.63
2023-09-14T06:05:23.516Z,101827.06
2023-09-14T06:07:50.585Z,101835.78
2023-09-14T06:10:18.091Z,101826.91
2023-09-14T06:12:44.760Z,101825.94
2023-09-14T06:15:11.202Z,101834.16
2023-09-14T06:17:37.944Z,101836.66
2023-09-14T06:20:06.903Z,101842.97
2023-09-14T06:22:33.595Z,101843.56
2023-09-14T06:25:00.439Z,101851.88
2023-09-14T06:27:27.118Z,101848.66
2023-09-14T06:29:53.657Z,101846.06
2023-09-14T06:32:20.089Z,101847.06
2023-09-14T06:34:46.525Z,101842.84
2023-09-14T06:37:13.173Z,101843.47
2023-09-14T06:39:40.001Z,101841.44
2023-09-14T06:42:06.439Z,101844.22
2023-09-14T06:44:33.408Z,101845.00
2023-09-14T06:47:03.369Z,101846.28
2023-09-14T06:49:29.955Z,101852.06
2023-09-14T06:51:56.606Z,101850.56
2023-09-14T06:54:23.089Z,101857.88
2023-09-14T06:56:49.812Z,101855.56
2023-09-14T06:59:16.246Z,101856.56
2023-09-14T07:01:42.801Z,101858.47
2023-09-14T07:04:09.468Z,101851.13
2023-09-14T07:06:36.104Z,101855.09
2023-09-14T07:09:04.097Z,101856.44
2023-09-14T07:11:30.554Z,101863.41
2023-09-14T07:13:59.212Z,101865.59
2023-09-14T07:16:25.804Z,101866.19
2023-09-14T07:18:53.271Z,101864.75
2023-09-14T07:21:19.794Z,101866.88
2023-09-14T07:23:48.021Z,101867.16
2023-09-14T07:26:14.712Z,101876.19
2023-09-14T07:28:41.824Z,101879.63
2023-09-14T07:31:09.393Z,101879.63
2023-09-14T07:33:36.152Z,101885.66
2023-09-14T07:36:02.865Z,101891.94
2023-09-14T07:38:29.342Z,101890.28
2023-09-14T07:40:56.813Z,101887.44
2023-09-14T07:43:23.297Z,101886.66
2023-09-14T07:45:49.904Z,101887.63
2023-09-14T07:48:16.572Z,101894.78
2023-09-14T07:50:43.081Z,101900.84
2023-09-14T07:53:10.630Z,101902.03
2023-09-14T07:55:37.625Z,101904.78
2023-09-14T07:58:04.414Z,101897.25
2023-09-14T08:00:31.164Z,101898.16
2023-09-14T08:02:57.814Z,101902.59
2023-09-14T08:05:24.521Z,101901.34
2023-09-14T08:07:51.066Z,101907.31
2023-09-14T08:10:17.795Z,101915.84
2023-09-14T08:12:44.477Z,101903.63
2023-09-14T08:15:11.806Z,101910.72
2023-09-14T08:17:38.379Z,101908.31
2023-09-14T08:20:05.788Z,101908.78
2023-09-14T08:22:32.205Z,101906.28
2023-09-14T08:25:02.654Z,101909.31
2023-09-14T08:27:29.751Z,101914.53
2023-09-14T08:29:56.775Z,101907.53
2023-09-14T08:32:23.923Z,101915.81
2023-09-14T08:34:51.024Z,101914.78
2023-09-14T08:37:18.176Z,101920.84
2023-09-14T08:39:44.759Z,101925.56
2023-09-14T08:42:11.706Z,101924.75
2023-09-14T08:44:40.476Z,101924.78
2023-09-14T08:47:08.422Z,101924.50
2023-09-14T08:49:36.761Z,101931.38
2023-09-14T08:52:04.842Z,101933.28
2023-09-14T08:54:32.533Z,101931.66
2023-09-14T08:56:59.128Z,101931.38
2023-09-14T08:59:28.054Z,101937.72
2023-09-14T09:01:58.406Z,101935.50
2023-09-14T09:04:25.797Z,101937.38
2023-09-14T09:06:54.001Z,101935.75
2023-09-14T09:09:22.840Z,101935.75
2023-09-14T09:11:49.579Z,101931.34
2023-09-14T09:14:16.163Z,101934.09
2023-09-14T09:16:42.677Z,101930.28
2023-09-14T09:19:11.365Z,101932.97
2023-09-14T09:21:38.959Z,101936.81
2023-09-14T09:24:07.271Z,101932.59
2023-09-14T09:26:38.632Z,101939.09
2023-09-14T09:29:15.844Z,101935.19
2023-09-14T09:31:47.226Z,101932.97
2023-09-14T09:34:14.953Z,101927.03
2023-09-14T09:36:41.700Z,101930.34
2023-09-14T09:39:12.121Z,101927.34
2023-09-14T09:41:39.049Z,101925.44
2023-09-14T09:44:10.393Z,101918.63
2023-09-14T09:46:37.672Z,101916.44
2023-09-14T09:49:15.932Z,101917.81
2023-09-14T09:51:42.961Z,101913.69
2023-09-14T09:54:09.406Z,101914.50
2023-09-14T09:56:39.261Z,101910.06
2023-09-14T09:59:10.934Z,101917.22
2023-09-14T10:01:38.950Z,101906.50
2023-09-14T10:04:28.025Z,101907.06
2023-09-14T10:07:00.229Z,101912.50
2023-09-14T10:09:34.425Z,101915.19
2023-09-14T10:12:04.377Z,101919.09
2023-09-14T10:14:33.558Z,101908.38
2023-09-14T10:17:04.603Z,101911.16
2023-09-14T10:19:32.241Z,101912.25
2023-09-14T10:21:59.697Z,101916.81
2023-09-14T10:24:27.140Z,101911.50
2023-09-14T10:26:56.453Z,101912.38
2023-09-14T10:29:24.430Z,101916.44
2023-09-14T10:31:54.260Z,101911.34
2023-09-14T10:34:21.495Z,101920.16
2023-09-14T10:36:51.556Z,101910.81
2023-09-14T10:39:23.343Z,101907.91
2023-09-14T10:41:50.184Z,101907.97
2023-09-14T10:44:16.800Z,101907.94
2023-09-14T10:46:45.520Z,101902.31
2023-09-14T10:49:12.280Z,101900.44
2023-09-14T10:51:38.817Z,101895.38
2023-09-14T10:54:05.639Z,101898.75
2023-09-14T10:56:32.550Z,101898.53
2023-09-14T10:59:00.888Z,101893.72
2023-09-14T11:01:46.408Z,101889.22
2023-09-14T11:04:19.504Z,101886.81
2023-09-14T11:06:50.466Z,101881.81
2023-09-14T11:09:19.613Z,101890.31
2023-09-14T11:11:49.104Z,101887.81
2023-09-14T11:14:16.693Z,101883.06
2023-09-14T11:16:48.443Z,101877.59
2023-09-14T11:19:42.997Z,101875.16
2023-09-14T11:22:19.026Z,101881.38
2023-09-14T11:24:46.866Z,101877.06
2023-09-14T11:27:22.371Z,101878.78
2023-09-14T11:29:52.542Z,101869.25
2023-09-14T11:32:24.804Z,101863.66
2023-09-14T11:34:58.493Z,101878.28
2023-09-14T11:37:34.337Z,101873.66
2023-09-14T11:40:10.182Z,101869.91
2023-09-14T11:43:12.301Z,101868.28
2023-09-14T11:45:47.846Z,101869.75
2023-09-14T11:50:51.590Z,101866.28
2023-09-14T11:53:20.464Z,101867.00
2023-09-14T11:55:49.088Z,101871.91
2023-09-14T11:58:16.166Z,101865.66
2023-09-14T12:00:49.947Z,101873.91
2023-09-14T12:03:16.729Z,101873.84
2023-09-14T12:05:43.299Z,101876.00
2023-09-14T12:08:14.346Z,101875.34
2023-09-14T12:10:41.715Z,101874.00
2023-09-14T12:13:18.216Z,101877.91
2023-09-14T12:15:47.050Z,101866.13
2023-09-14T12:18:17.482Z,101875.28
2023-09-14T12:20:46.211Z,101881.13
2023-09-14T12:23:14.751Z,101884.50
2023-09-14T12:25:42.533Z,101887.84
2023-09-14T12:28:12.117Z,101891.50
2023-09-14T12:30:39.357Z,101897.50
2023-09-14T12:33:07.445Z,101880.75
2023-09-14T12:35:33.983Z,101881.53
2023-09-14T12:38:03.885Z,101876.06
2023-09-14T12:40:35.349Z,101872.72
2023-09-14T12:43:06.084Z,101875.50
2023-09-14T12:45:36.576Z,101879.38
2023-09-14T12:48:05.333Z,101872.59
2023-09-14T12:50:38.817Z,101878.72
2023-09-14T12:53:09.567Z,101879.53
2023-09-14T12:55:46.284Z,101872.00
2023-09-14T12:58:13.656Z,101873.22
2023-09-14T13:00:40.380Z,101870.53
2023-09-14T13:03:10.501Z,101869.22
2023-09-14T13:05:37.752Z,101867.09
2023-09-14T13:08:05.676Z,101870.59
2023-09-14T13:10:36.094Z,101868.44
2023-09-14T13:13:02.829Z,101866.38
2023-09-14T13:15:31.471Z,101851.63
2023-09-14T13:18:06.698Z,101855.34
2023-09-14T13:20:35.115Z,101850.53
2023-09-14T13:23:06.308Z,101847.22
2023-09-14T13:25:33.719Z,101850.72
2023-09-14T13:28:02.083Z,101846.66
2023-09-14T13:30:30.649Z,101841.06
2023-09-14T13:32:57.771Z,101838.47
2023-09-14T13:35:25.888Z,101840.81
2023-09-14T13:37:53.131Z,101842.19
2023-09-14T13:40:24.504Z,101830.13
2023-09-14T13:42:52.718Z,101832.38
2023-09-14T13:45:20.526Z,101832.47
2023-09-14T13:47:49.017Z,101827.38
2023-09-14T13:50:15.676Z,101824.03
2023-09-14T13:52:42.120Z,101824.19
2023-09-14T13:55:09.297Z,101823.56
2023-09-14T13:57:36.563Z,101814.13
2023-09-14T14:00:11.729Z,101812.16
2023-09-14T14:02:43.106Z,101810.81
2023-09-14T14:05:10.038Z,101813.91
2023-09-14T14:07:36.726Z,101808.50
2023-09-14T14:10:06.147Z,101807.06
2023-09-14T14:12:33.585Z,101805.59
2023-09-14T14:15:00.290Z,101806.00
2023-09-14T14:17:28.097Z,101803.06
2023-09-14T14:19:55.454Z,101797.91
2023-09-14T14:22:22.686Z,101786.28
2023-09-14T14:24:49.287Z,101796.75
2023-09-14T14:27:16.521Z,101785.31
2023-09-14T14:29:43.294Z,101790.25
2023-09-14T14:32:09.814Z,101789.75
2023-09-14T14:34:36.468Z,101793.38
2023-09-14T14:37:03.116Z,101793.41
2023-09-14T14:39:30.729Z,101783.94
2023-09-14T14:41:57.358Z,101787.53
2023-09-14T14:44:25.566Z,101788.06
2023-09-14T14:46:52.300Z,101786.66
2023-09-14T14:49:18.986Z,101789.50
2023-09-14T14:51:45.441Z,101786.97
2023-09-14T14:54:12.546Z,101783.09
2023-09-14T14:56:40.382Z,101782.16
2023-09-14T14:59:07.346Z,101783.06
2023-09-14T15:01:33.850Z,101778.06
2023-09-14T15:04:00.537Z,101777.25
2023-09-14T15:06:28.332Z,101780.00
2023-09-14T15:08:54.971Z,101777.47
2023-09-14T15:11:21.472Z,101774.28
2023-09-14T15:13:48.006Z,101776.03
2023-09-14T15:16:15.232Z,101780.41
2023-09-14T15:18:41.823Z,101771.94
2023-09-14T15:21:08.608Z,101776.03
2023-09-14T15:23:36.088Z,101778.97
2023-09-14T15:26:03.003Z,101773.16
2023-09-14T15:28:29.654Z,101770.13
2023-09-14T15:30:56.900Z,101775.91
2023-09-14T15:33:26.945Z,101779.06
2023-09-14T15:35:53.585Z,101776.00
2023-09-14T15:38:20.083Z,101773.34
2023-09-14T15:40:53.525Z,101776.81
2023-09-14T15:43:20.113Z,101773.84
2023-09-14T15:45:46.690Z,101777.81
2023-09-14T15:48:15.495Z,101770.69
2023-09-14T15:50:42.474Z,101767.22
2023-09-14T15:53:08.939Z,101773.75
2023-09-14T15:55:35.831Z,101766.19
2023-09-14T15:58:02.655Z,101766.06
2023-09-14T16:00:29.386Z,101770.31
2023-09-14T16:02:56.032Z,101768.66
2023-09-14T16:05:22.714Z,101765.47
2023-09-14T16:08:02.720Z,101756.03
2023-09-14T16:10:29.490Z,101762.78
2023-09-14T16:12:56.028Z,101764.28
2023-09-14T16:15:22.579Z,101765.41
2023-09-14T16:17:49.011Z,101761.00
2023-09-14T16:20:15.580Z,101762.97
2023-09-14T16:22:41.973Z,101760.50
2023-09-14T16:25:10.013Z,101765.16
2023-09-14T16:27:36.755Z,101760.97
2023-09-14T16:30:06.211Z,101763.16
2023-09-14T16:32:36.070Z,101760.28
2023-09-14T16:35:02.655Z,101760.22
2023-09-14T16:37:29.704Z,101764.91
2023-09-14T16:39:57.083Z,101771.06
2023-09-14T16:42:23.603Z,101764.63
2023-09-14T16:44:50.105Z,101762.69
2023-09-14T16:47:18.282Z,101763.56
2023-09-14T16:49:45.254Z,101766.97
2023-09-14T16:52:11.664Z,101766.81
2023-09-14T16:54:38.379Z,101771.34
2023-09-14T16:57:05.424Z,101768.06
2023-09-14T16:59:31.907Z,101762.13
2023-09-14T17:01:58.594Z,101769.13
2023-09-14T17:04:25.246Z,101763.16
2023-09-14T17:06:54.254Z,101760.47
2023-09-14T17:09:22.239Z,101770.47
2023-09-14T17:11:49.238Z,101761.31
2023-09-14T17:14:17.579Z,101764.56
2023-09-14T17:16:44.454Z,101764.38
2023-09-14T17:19:11.005Z,101761.03
2023-09-14T17:21:37.570Z,101765.19
2023-09-14T17:24:05.113Z,101762.97
2023-09-14T17:26:31.774Z,101773.97
2023-09-14T17:28:59.558Z,101763.41
2023-09-14T17:31:26.849Z,101764.56
2023-09-14T17:33:53.538Z,101769.25
2023-09-14T17:36:19.943Z,101759.19
2023-09-14T17:38:46.618Z,101767.97
2023-09-14T17:41:13.218Z,101767.47
2023-09-14T17:43:41.522Z,101764.19
2023-09-14T17:46:09.103Z,101760.44
2023-09-14T17:48:37.619Z,101768.44
2023-09-14T17:51:04.621Z,101768.78
2023-09-14T17:53:31.305Z,101768.56
2023-09-14T17:56:01.000Z,101773.78
2023-09-14T17:58:28.811Z,101765.06
2023-09-14T18:00:55.431Z,101775.25
2023-09-14T18:03:22.039Z,101775.56
2023-09-14T18:05:49.025Z,101778.06
2023-09-14T18:08:15.929Z,101772.88
2023-09-14T18:10:42.477Z,101764.69
2023-09-14T18:13:09.400Z,101781.13
2023-09-14T18:15:40.006Z,101774.03
2023-09-14T18:18:07.544Z,101772.09
2023-09-14T18:20:34.574Z,101769.91
2023-09-14T18:23:06.138Z,101777.56
2023-09-14T18:25:32.659Z,101773.22
2023-09-14T18:27:59.302Z,101773.78
2023-09-14T18:30:25.822Z,101775.69
2023-09-14T18:32:59.712Z,101774.06
2023-09-14T18:35:26.492Z,101777.63
2023-09-14T18:37:53.354Z,101775.16
2023-09-14T18:40:21.613Z,101771.06
2023-09-14T18:42:49.735Z,101777.09
2023-09-14T18:45:16.277Z,101776.78
2023-09-14T18:47:42.740Z,101780.13
2023-09-14T18:50:11.806Z,101776.28
2023-09-14T18:52:42.252Z,101781.19
2023-09-14T18:55:10.928Z,101783.66
2023-09-14T18:57:38.456Z,101781.22
2023-09-14T19:00:12.774Z,101777.63
2023-09-14T19:02:43.085Z,101783.09
2023-09-14T19:05:09.804Z,101783.91
2023-09-14T19:07:37.052Z,101786.88
2023-09-14T19:10:04.678Z,101791.00
2023-09-14T19:12:31.768Z,101783.88
2023-09-14T19:14:58.583Z,101785.47
2023-09-14T19:17:25.318Z,101798.88
2023-09-14T19:19:51.959Z,101792.78
2023-09-14T19:22:18.353Z,101798.53
2023-09-14T19:24:44.851Z,101797.44
2023-09-14T19:27:11.340Z,101798.25
2023-09-14T19:29:37.792Z,101795.25
2023-09-14T19:32:04.382Z,101794.41
2023-09-14T19:34:30.857Z,101796.31
2023-09-14T19:36:57.498Z,101787.59
2023-09-14T19:39:23.965Z,101793.59
2023-09-14T19:41:53.018Z,101791.13
2023-09-14T19:44:19.540Z,101795.19
2023-09-14T19:46:45.966Z,101789.13
2023-09-14T19:49:12.513Z,101796.53
2023-09-14T19:51:39.003Z,101793.19
2023-09-14T19:54:05.525Z,101792.06
2023-09-14T19:56:33.402Z,101792.34
2023-09-14T19:58:59.885Z,101792.00
2023-09-14T20:01:29.630Z,101792.03
2023-09-14T20:03:56.372Z,101791.22
2023-09-14T20:06:25.193Z,101794.19
2023-09-14T20:08:51.806Z,101795.00
2023-09-14T20:11:18.320Z,101798.28
2023-09-14T20:13:44.851Z,101798.56
2023-09-14T20:16:11.338Z,101795.00
2023-09-14T20:18:42.752Z,101788.16
2023-09-14T20:21:09.441Z,101785.38
2023-09-14T20:23:35.975Z,101792.44
2023-09-14T20:26:02.817Z,101786.94
2023-09-14T20:28:29.534Z,101795.34
2023-09-14T20:30:56.135Z,101795.88
2023-09-14T20:33:22.950Z,101801.81
2023-09-14T20:35:49.423Z,101801.50
2023-09-14T20:38:19.129Z,101797.16
2023-09-14T20:40:47.392Z,101790.88
2023-09-14T20:43:14.604Z,101793.03
2023-09-14T20:45:42.047Z,101789.69
2023-09-14T20:48:15.718Z,101795.13
2023-09-14T20:50:42.658Z,101791.31
2023-09-14T20:53:09.455Z,101794.28
2023-09-14T20:55:43.350Z,101790.72
2023-09-14T20:58:09.924Z,101786.63
2023-09-14T21:00:37.594Z,101794.00
2023-09-14T21:03:05.021Z,101791.00
2023-09-14T21:05:32.030Z,101789.38
2023-09-14T21:07:58.677Z,101784.44
2023-09-14T21:10:25.130Z,101794.00
2023-09-14T21:12:51.650Z,101787.41
2023-09-14T21:15:18.318Z,101798.47
2023-09-14T21:17:44.823Z,101796.84
2023-09-14T21:20:11.543Z,101794.03
2023-09-14T21:22:39.134Z,101801.38
2023-09-14T21:25:06.520Z,101798.44
2023-09-14T21:27:33.009Z,101801.69
2023-09-14T21:29:59.600Z,101792.13
2023-09-14T21:32:26.208Z,101795.38
2023-09-14T21:34:52.712Z,101793.97
2023-09-14T21:37:19.200Z,101796.44
2023-09-14T21:39:45.812Z,101793.44
2023-09-14T21:42:12.301Z,101788.25
2023-09-14T21:44:38.807Z,101786.63
2023-09-14T21:47:05.439Z,101783.06
2023-09-14T21:49:37.293Z,101784.41
2023-09-14T21:52:06.172Z,101781.69
2023-09-14T21:54:37.300Z,101776.41
2023-09-14T21:57:07.934Z,101771.47
2023-09-14T21:59:35.853Z,101773.38
2023-09-14T22:02:03.963Z,101769.03
2023-09-14T22:04:30.859Z,101769.03
2023-09-14T22:06:57.634Z,101756.44
2023-09-14T22:09:24.925Z,101764.81
2023-09-14T22:11:52.736Z,101758.50
2023-09-14T22:14:19.199Z,101760.69
2023-09-14T22:16:45.935Z,101752.25
2023-09-14T22:19:12.547Z,101758.41
2023-09-14T22:21:39.134Z,101757.34
2023-09-14T22:24:06.094Z,101759.53
2023-09-14T22:26:34.649Z,101766.69
2023-09-14T22:29:01.765Z,101761.34
2023-09-14T22:31:28.747Z,101761.84
2023-09-14T22:33:55.594Z,101767.78
2023-09-14T22:36:22.907Z,101761.59
2023-09-14T22:38:49.773Z,101761.09
2023-09-14T22:41:17.428Z,101759.22
2023-09-14T22:43:43.999Z,101757.16
2023-09-14T22:46:13.246Z,101759.88
2023-09-14T22:48:42.060Z,101753.81
2023-09-14T22:51:18.324Z,101753.31
2023-09-14T22:53:45.142Z,101755.22
2023-09-14T22:56:18.627Z,101756.81
2023-09-14T22:58:52.587Z,101749.56
2023-09-14T23:01:20.900Z,101751.72
2023-09-14T23:03:48.394Z,101752.81
2023-09-14T23:06:15.110Z,101744.03
2023-09-14T23:08:43.264Z,101754.03
2023-09-14T23:11:11.985Z,101742.59
2023-09-14T23:13:39.803Z,101743.28
2023-09-14T23:16:15.322Z,101738.88
2023-09-14T23:18:43.383Z,101739.59
2023-09-14T23:21:11.831Z,101741.59
2023-09-14T23:23:39.209Z,101732.81
2023-09-14T23:26:11.204Z,101734.72
2023-09-14T23:28:37.866Z,101731.69
2023-09-14T23:31:05.117Z,101734.31
2023-09-14T23:33:41.649Z,101723.06
2023-09-14T23:36:14.371Z,101730.47
2023-09-14T23:38:41.244Z,101735.22
2023-09-14T23:41:12.435Z,101734.31
2023-09-14T23:43:41.409Z,101734.91
2023-09-14T23:46:08.123Z,101721.63
2023-09-14T23:48:34.947Z,101724.91
2023-09-14T23:51:02.998Z,101731.16
2023-09-14T23:53:29.968Z,101724.91
2023-09-14T23:55:56.518Z,101725.16
2023-09-14T23:58:23.420Z,101712.06
